Time;durP1;ratioP1;P1;durP2;ratioP2;P2;SDS_P1;SDS_P2;PMS_P1;PMS_P2;Temp;Humidity;BMP_temperature;BMP_pressure;BME280_temperature;BME280_humidity;BME280_pressure;Samples;Min_cycle;Max_cycle;Signal;HPM_P1;HPM_P2
2023/05/08 00:00:19;;;;;;;20.48;12.15;;;;;;;14.37;100.00;101945.72;5090407;28;20119;-76
2023/05/08 00:02:45;;;;;;;19.90;12.93;;;;;;;14.31;100.00;101930.41;5090357;28;20044;-76
2023/05/08 00:05:10;;;;;;;18.90;12.35;;;;;;;14.35;100.00;101937.03;5090427;28;20063;-76
2023/05/08 00:07:36;;;;;;;19.52;13.30;;;;;;;14.29;100.00;101930.59;5090400;28;20086;-76
2023/05/08 00:10:03;;;;;;;21.13;13.25;;;;;;;14.31;100.00;101938.47;5090384;28;20032;-76
2023/05/08 00:12:28;;;;;;;20.20;13.18;;;;;;;14.31;100.00;101935.78;5088951;28;20467;-76
2023/05/08 00:14:54;;;;;;;19.33;11.75;;;;;;;14.25;100.00;101932.00;5090072;28;20035;-76
2023/05/08 00:17:19;;;;;;;20.52;13.52;;;;;;;14.31;100.00;101928.56;5090181;28;20116;-76
2023/05/08 00:19:44;;;;;;;23.13;14.05;;;;;;;14.29;100.00;101929.78;5090224;28;20151;-76
2023/05/08 00:22:10;;;;;;;19.73;12.05;;;;;;;14.27;100.00;101929.97;5090476;28;20028;-76
2023/05/08 00:24:35;;;;;;;20.17;13.00;;;;;;;14.27;100.00;101924.59;5089545;28;20486;-76
2023/05/08 00:27:00;;;;;;;20.80;13.30;;;;;;;14.24;100.00;101928.50;5089614;28;20578;-76
2023/05/08 00:29:26;;;;;;;22.88;13.98;;;;;;;14.20;100.00;101937.13;5090028;28;20032;-76
2023/05/08 00:31:51;;;;;;;21.25;14.40;;;;;;;14.17;100.00;101938.38;5089954;28;20036;-76
2023/05/08 00:34:16;;;;;;;22.05;15.00;;;;;;;14.11;100.00;101932.94;5088706;28;20131;-76
2023/05/08 00:36:42;;;;;;;20.02;13.43;;;;;;;14.13;100.00;101928.22;5089928;28;20071;-76
2023/05/08 00:39:07;;;;;;;19.25;12.85;;;;;;;14.17;100.00;101942.88;5089677;28;20039;-76
2023/05/08 00:41:32;;;;;;;21.30;13.32;;;;;;;14.10;100.00;101929.44;5089872;28;20391;-76
2023/05/08 00:43:58;;;;;;;22.60;14.70;;;;;;;14.14;100.00;101929.84;5090239;28;20063;-76
2023/05/08 00:46:23;;;;;;;20.67;14.18;;;;;;;14.16;100.00;101936.69;5089804;28;20637;-76
2023/05/08 00:48:49;;;;;;;20.83;11.93;;;;;;;14.03;100.00;101917.78;5088226;28;20036;-76
2023/05/08 00:51:15;;;;;;;21.45;13.90;;;;;;;14.07;100.00;101929.81;5089697;28;20398;-76
2023/05/08 00:53:42;;;;;;;21.33;13.35;;;;;;;14.03;100.00;101929.34;5088185;28;20048;-76
2023/05/08 00:56:14;;;;;;;23.00;13.77;;;;;;;14.01;100.00;101931.38;5089512;28;20024;-76
2023/05/08 00:58:40;;;;;;;20.58;13.80;;;;;;;13.96;100.00;101925.81;5089167;28;20394;-76
2023/05/08 01:01:06;;;;;;;21.15;13.63;;;;;;;13.96;100.00;101935.69;5089362;28;20506;-76
2023/05/08 01:03:35;;;;;;;22.67;14.73;;;;;;;13.96;100.00;101933.84;5089315;28;20058;-76
2023/05/08 01:06:01;;;;;;;23.02;14.57;;;;;;;13.96;100.00;101931.16;5089263;28;20483;-76
2023/05/08 01:08:27;;;;;;;22.38;14.10;;;;;;;13.95;100.00;101926.81;5089995;28;20385;-76
2023/05/08 01:11:10;;;;;;;21.08;13.25;;;;;;;13.92;100.00;101927.19;5087872;28;20028;-76
2023/05/08 01:13:50;;;;;;;20.13;13.00;;;;;;;13.91;100.00;101927.38;5089354;28;20034;-76
2023/05/08 01:16:40;;;;;;;23.60;14.07;;;;;;;13.93;100.00;101930.69;5087896;28;20561;-76
2023/05/08 01:19:24;;;;;;;21.25;12.73;;;;;;;13.88;100.00;101928.59;5089009;28;20038;-76
2023/05/08 01:21:56;;;;;;;22.88;13.88;;;;;;;13.87;100.00;101920.75;5089205;28;20035;-71
2023/05/08 01:24:58;;;;;;;21.63;14.05;;;;;;;13.86;100.00;101921.75;5088770;28;20032;-71
2023/05/08 01:27:56;;;;;;;23.13;13.50;;;;;;;13.85;100.00;101931.66;5089195;28;20577;-71
2023/05/08 01:30:50;;;;;;;20.10;12.55;;;;;;;13.82;100.00;101924.81;5089189;28;20422;-71
2023/05/08 01:33:21;;;;;;;23.73;11.18;;;;;;;13.80;100.00;101931.41;5088909;28;20031;-71
2023/05/08 01:35:51;;;;;;;20.58;12.55;;;;;;;13.77;100.00;101923.75;5089102;28;20471;-71
2023/05/08 01:38:31;;;;;;;20.20;14.02;;;;;;;13.80;100.00;101934.09;5089167;28;20031;-71
2023/05/08 01:41:21;;;;;;;22.17;12.20;;;;;;;13.76;100.00;101930.97;5093150;28;20089;-71
2023/05/08 01:44:09;;;;;;;19.55;12.38;;;;;;;13.76;100.00;101925.59;5091976;28;20110;-71
2023/05/08 01:46:35;;;;;;;18.85;11.45;;;;;;;13.73;100.00;101925.16;5093185;28;20424;-71
2023/05/08 01:49:40;;;;;;;24.27;13.45;;;;;;;13.81;100.00;101925.03;5092995;28;20060;-71
2023/05/08 01:52:12;;;;;;;20.20;13.15;;;;;;;13.79;100.00;101925.22;5049977;28;20040;-71
2023/05/08 01:54:43;;;;;;;22.45;14.88;;;;;;;13.80;100.00;101918.00;5087111;28;20081;-71
2023/05/08 01:57:10;;;;;;;21.55;14.20;;;;;;;13.83;100.00;101928.34;5092738;28;20016;-71
2023/05/08 01:59:37;;;;;;;20.40;12.57;;;;;;;13.76;100.00;101914.06;5093004;28;20032;-71
2023/05/08 02:02:05;;;;;;;21.48;13.55;;;;;;;13.80;100.00;101924.19;5092918;28;20039;-71
2023/05/08 02:04:32;;;;;;;19.73;11.95;;;;;;;13.85;100.00;101930.84;5092501;28;20056;-71
2023/05/08 02:06:58;;;;;;;19.70;11.80;;;;;;;13.84;100.00;101945.28;5092728;28;20338;-71
2023/05/08 02:09:25;;;;;;;19.65;12.32;;;;;;;13.82;100.00;101937.41;5092628;28;20047;-71
2023/05/08 02:11:52;;;;;;;18.67;11.85;;;;;;;13.79;100.00;101943.16;5092562;28;20036;-71
2023/05/08 02:14:19;;;;;;;22.17;13.38;;;;;;;13.77;100.00;101940.66;5092481;28;20536;-71
2023/05/08 02:16:47;;;;;;;19.48;11.82;;;;;;;13.77;100.00;101945.19;5091040;28;20379;-71
2023/05/08 02:19:15;;;;;;;20.90;12.35;;;;;;;13.74;100.00;101943.72;5092405;28;20543;-71
2023/05/08 02:21:40;;;;;;;20.58;12.80;;;;;;;13.78;100.00;101952.22;5092321;28;20062;-71
2023/05/08 02:24:07;;;;;;;19.63;11.98;;;;;;;13.79;100.00;101945.84;5092927;28;20054;-71
2023/05/08 02:26:35;;;;;;;20.17;12.55;;;;;;;13.76;100.00;101955.09;5092408;28;20131;-71
2023/05/08 02:29:02;;;;;;;20.70;13.38;;;;;;;13.75;100.00;101953.44;5092407;28;20032;-71
2023/05/08 02:31:29;;;;;;;29.83;14.02;;;;;;;13.73;100.00;101944.75;5092219;28;20064;-71
2023/05/08 02:33:56;;;;;;;23.98;14.60;;;;;;;13.73;100.00;101946.63;5090902;28;20032;-71
2023/05/08 02:36:23;;;;;;;20.80;13.05;;;;;;;13.70;100.00;101947.81;5092133;28;20402;-71
2023/05/08 02:38:52;;;;;;;22.45;13.07;;;;;;;13.72;100.00;101945.75;5091872;28;20103;-71
2023/05/08 02:41:21;;;;;;;24.52;14.93;;;;;;;13.71;100.00;101948.66;5092095;28;20028;-71
2023/05/08 02:43:47;;;;;;;20.83;13.43;;;;;;;13.69;100.00;101945.31;5092181;28;20031;-71
2023/05/08 02:46:19;;;;;;;22.02;13.63;;;;;;;13.71;100.00;101940.59;5092061;28;20475;-71
2023/05/08 02:49:11;;;;;;;20.60;13.07;;;;;;;13.71;100.00;101936.06;5092336;28;21185;-71
2023/05/08 02:52:04;;;;;;;21.60;13.52;;;;;;;13.74;100.00;101942.91;5091991;28;20073;-76
2023/05/08 02:54:43;;;;;;;21.38;13.55;;;;;;;13.71;100.00;101938.75;5091865;28;20028;-76
2023/05/08 02:57:57;;;;;;;22.98;15.98;;;;;;;13.75;100.00;101936.50;5091784;28;20016;-76
2023/05/08 03:00:30;;;;;;;23.98;14.50;;;;;;;13.75;100.00;101937.38;5030323;28;20108;-76
2023/05/08 03:03:00;;;;;;;22.05;14.73;;;;;;;13.75;100.00;101936.50;5091324;28;20028;-76
2023/05/08 03:05:34;;;;;;;20.42;13.32;;;;;;;13.74;100.00;101938.38;5091632;28;20039;-76
2023/05/08 03:08:04;;;;;;;21.98;13.80;;;;;;;13.69;100.00;101930.06;5091679;28;20031;-76
2023/05/08 03:10:33;;;;;;;25.48;13.10;;;;;;;13.71;100.00;101944.13;5091429;28;20138;-75
2023/05/08 03:13:03;;;;;;;22.45;13.73;;;;;;;13.70;100.00;101944.28;5091592;28;20028;-75
2023/05/08 03:15:41;;;;;;;21.85;13.35;;;;;;;13.74;100.00;101941.03;5091334;28;20534;-75
2023/05/08 03:18:10;;;;;;;23.05;14.82;;;;;;;13.73;100.00;101941.25;5091202;28;20036;-76
2023/05/08 03:20:43;;;;;;;21.88;14.45;;;;;;;13.74;100.00;101941.03;5091358;28;20031;-76
2023/05/08 03:23:11;;;;;;;25.00;14.73;;;;;;;13.71;100.00;101937.94;5091507;28;20068;-75
2023/05/08 03:25:38;;;;;;;24.58;15.18;;;;;;;13.70;100.00;101938.94;5091192;28;20428;-76
2023/05/08 03:28:05;;;;;;;24.58;15.00;;;;;;;13.67;100.00;101942.81;5091313;28;20043;-76
2023/05/08 03:30:34;;;;;;;23.65;14.43;;;;;;;13.74;100.00;101940.22;5090087;28;20379;-76
2023/05/08 03:33:02;;;;;;;23.77;16.02;;;;;;;13.72;100.00;101942.25;5091240;28;20031;-76
2023/05/08 03:35:29;;;;;;;21.27;14.43;;;;;;;13.68;100.00;101936.47;5091123;28;20394;-76
2023/05/08 03:37:54;;;;;;;20.60;13.05;;;;;;;13.64;100.00;101937.03;5090819;28;20039;-75
2023/05/08 03:40:20;;;;;;;22.98;14.32;;;;;;;13.61;100.00;101924.81;5090905;28;20039;-75
2023/05/08 03:42:46;;;;;;;22.83;15.57;;;;;;;13.66;100.00;101937.66;5091083;28;20036;-75
2023/05/08 03:45:13;;;;;;;21.08;12.50;;;;;;;13.64;100.00;101934.34;5090811;28;20036;-76
2023/05/08 03:47:39;;;;;;;23.30;13.65;;;;;;;13.58;100.00;101923.34;5090956;28;20031;-75
2023/05/08 03:50:07;;;;;;;21.73;14.40;;;;;;;13.57;100.00;101923.53;5090768;28;20059;-75
2023/05/08 03:52:33;;;;;;;22.65;14.30;;;;;;;13.55;100.00;101926.41;5090871;28;20035;-75
2023/05/08 03:55:00;;;;;;;22.77;13.77;;;;;;;13.53;100.00;101927.63;5090703;28;20082;-75
2023/05/08 03:57:49;;;;;;;28.98;17.02;;;;;;;13.47;100.00;101912.31;5090696;28;20459;-76
2023/05/08 04:00:32;;;;;;;23.88;14.13;;;;;;;13.52;100.00;101929.47;5090083;28;20043;-75
2023/05/08 04:03:44;;;;;;;24.67;14.65;;;;;;;13.50;100.00;101928.84;5088625;28;20089;-75
2023/05/08 04:06:15;;;;;;;22.35;13.52;;;;;;;13.44;100.00;101929.59;5033945;28;20125;-76
2023/05/08 04:08:47;;;;;;;22.15;14.05;;;;;;;13.44;100.00;101936.78;5090540;28;20028;-76
2023/05/08 04:11:45;;;;;;;22.55;13.82;;;;;;;13.43;100.00;101945.88;5090146;28;20027;-75
2023/05/08 04:14:15;;;;;;;24.13;14.90;;;;;;;13.37;100.00;101940.22;5045075;28;20035;-75
2023/05/08 04:16:48;;;;;;;24.63;16.08;;;;;;;13.35;100.00;101939.59;5090214;28;20069;-75
2023/05/08 04:19:26;;;;;;;23.65;14.63;;;;;;;13.34;100.00;101934.44;5090079;28;20036;-75
2023/05/08 04:21:56;;;;;;;24.20;14.85;;;;;;;13.34;100.00;101937.13;5090217;28;20425;-75
2023/05/08 04:24:23;;;;;;;31.42;19.25;;;;;;;13.33;100.00;101933.56;5090317;28;20028;-75
2023/05/08 04:26:50;;;;;;;29.77;19.73;;;;;;;13.35;100.00;101936.91;5090053;28;20058;-75
2023/05/08 04:29:16;;;;;;;30.05;21.08;;;;;;;13.43;100.00;101945.88;5088558;28;20031;-75
2023/05/08 04:31:42;;;;;;;29.00;19.75;;;;;;;13.44;100.00;101942.16;5089852;28;20252;-75
2023/05/08 04:34:08;;;;;;;29.88;20.45;;;;;;;13.45;100.00;101941.16;5089852;28;20517;-75
2023/05/08 04:36:34;;;;;;;27.50;18.13;;;;;;;13.47;100.00;101941.78;5089965;28;20024;-75
2023/05/08 04:38:59;;;;;;;28.52;19.88;;;;;;;13.46;100.00;101943.63;5089691;28;20036;-75
2023/05/08 04:41:25;;;;;;;27.63;18.70;;;;;;;13.46;100.00;101938.25;5089814;28;20402;-75
2023/05/08 04:43:50;;;;;;;26.25;18.27;;;;;;;13.57;100.00;101947.66;5089760;28;20043;-75
2023/05/08 04:46:16;;;;;;;24.85;16.55;;;;;;;13.52;100.00;101947.41;5089699;28;20114;-75
2023/05/08 04:48:41;;;;;;;30.17;20.58;;;;;;;13.60;100.00;101958.03;5089694;28;20067;-75
2023/05/08 04:51:06;;;;;;;27.70;17.63;;;;;;;13.66;100.00;101961.78;5089646;28;20040;-75
2023/05/08 04:53:32;;;;;;;28.83;17.52;;;;;;;13.71;100.00;101962.88;5089574;28;20032;-75
2023/05/08 04:55:58;;;;;;;27.10;18.65;;;;;;;13.75;100.00;101957.97;5088181;28;20040;-75
2023/05/08 04:58:23;;;;;;;29.77;19.50;;;;;;;13.89;100.00;101961.63;5087950;28;20035;-75
2023/05/08 05:00:48;;;;;;;31.17;18.60;;;;;;;14.00;100.00;101969.97;5089348;28;20461;-76
2023/05/08 05:03:14;;;;;;;30.42;19.10;;;;;;;14.08;100.00;101962.84;5090391;28;20105;-76
2023/05/08 05:05:39;;;;;;;27.02;18.48;;;;;;;14.09;100.00;101969.84;5090798;28;20045;-76
2023/05/08 05:08:05;;;;;;;27.88;19.10;;;;;;;14.10;100.00;101968.84;5090609;28;20115;-76
2023/05/08 05:10:30;;;;;;;30.63;21.35;;;;;;;14.11;100.00;101965.94;5090657;28;20539;-76
2023/05/08 05:12:55;;;;;;;29.77;20.52;;;;;;;14.16;100.00;101973.44;5090467;28;20020;-76
2023/05/08 05:15:21;;;;;;;30.13;21.40;;;;;;;14.20;100.00;101974.69;5090200;28;20119;-77
2023/05/08 05:17:47;;;;;;;32.97;22.50;;;;;;;14.23;100.00;101975.16;5090607;28;20584;-79
2023/05/08 05:20:13;;;;;;;30.50;20.98;;;;;;;14.30;100.00;101980.56;5090439;28;20127;-83
2023/05/08 05:22:38;;;;;;;31.90;21.10;;;;;;;14.35;100.00;101980.81;5084439;28;20505;-77
2023/05/08 05:25:04;;;;;;;33.75;24.83;;;;;;;14.39;100.00;101981.25;5080202;28;20024;-78
2023/05/08 05:27:30;;;;;;;34.58;24.45;;;;;;;14.42;100.00;101979.00;5082953;28;20100;-72
2023/05/08 05:29:56;;;;;;;34.72;25.33;;;;;;;14.48;100.00;101988.97;5081286;28;20063;-73
2023/05/08 05:32:21;;;;;;;33.88;25.30;;;;;;;14.53;100.00;101991.09;5083479;28;20086;-72
2023/05/08 05:34:47;;;;;;;34.53;26.10;;;;;;;14.60;100.00;101983.13;5081564;28;20032;-72
2023/05/08 05:37:12;;;;;;;35.42;25.73;;;;;;;14.69;100.00;101988.13;5083143;28;20051;-72
2023/05/08 05:39:37;;;;;;;38.40;25.67;;;;;;;14.76;100.00;101993.53;5081585;28;20035;-70
2023/05/08 05:42:03;;;;;;;36.55;27.77;;;;;;;14.79;100.00;101993.16;5082643;28;20471;-73
2023/05/08 05:44:28;;;;;;;35.33;25.55;;;;;;;14.80;100.00;101997.50;5083154;28;20024;-73
2023/05/08 05:46:53;;;;;;;38.25;29.40;;;;;;;14.86;100.00;102007.47;5082700;28;20024;-72
2023/05/08 05:49:19;;;;;;;37.08;26.63;;;;;;;14.84;100.00;101996.06;5081554;28;20110;-72
2023/05/08 05:51:44;;;;;;;38.88;27.38;;;;;;;14.92;100.00;102002.34;5082412;28;20024;-73
2023/05/08 05:54:10;;;;;;;32.45;24.33;;;;;;;14.95;100.00;102015.34;5082789;28;20696;-72
2023/05/08 05:56:35;;;;;;;33.67;27.35;;;;;;;14.98;100.00;102010.41;5081853;28;20510;-71
2023/05/08 05:59:00;;;;;;;37.55;27.77;;;;;;;15.00;100.00;102020.97;5083007;28;20426;-71
2023/05/08 06:01:27;;;;;;;37.15;26.25;;;;;;;15.01;100.00;102018.09;5081771;28;20032;-71
2023/05/08 06:03:53;;;;;;;33.97;25.65;;;;;;;15.02;100.00;102017.06;5082395;28;20076;-71
2023/05/08 06:06:18;;;;;;;38.10;26.63;;;;;;;15.05;100.00;102021.22;5081246;28;20124;-71
2023/05/08 06:08:44;;;;;;;37.58;27.20;;;;;;;15.05;100.00;102021.22;5082722;28;20127;-71
2023/05/08 06:11:10;;;;;;;36.17;27.35;;;;;;;15.05;100.00;102018.53;5082429;28;20044;-72
2023/05/08 06:13:38;;;;;;;36.58;27.40;;;;;;;15.05;100.00;102019.34;5079409;28;20028;-72
2023/05/08 06:16:04;;;;;;;36.70;26.90;;;;;;;15.09;100.00;102022.47;5083080;28;20028;-72
2023/05/08 06:18:30;;;;;;;40.33;28.92;;;;;;;15.08;100.00;102013.56;5081727;28;20020;-72
2023/05/08 06:20:59;;;;;;;40.97;31.60;;;;;;;15.08;100.00;102018.13;5082688;28;20035;-72
2023/05/08 06:23:25;;;;;;;36.83;28.52;;;;;;;15.15;100.00;102015.50;5082098;28;20097;-72
2023/05/08 06:25:51;;;;;;;39.42;30.85;;;;;;;15.17;100.00;102014.28;5085133;28;20094;-70
2023/05/08 06:28:16;;;;;;;39.67;28.27;;;;;;;15.24;100.00;102008.91;5085885;28;20491;-72
2023/05/08 06:30:42;;;;;;;38.17;31.30;;;;;;;15.33;100.00;102015.78;5085824;28;21214;-71
2023/05/08 06:33:08;;;;;;;38.67;30.10;;;;;;;15.36;100.00;102019.94;5084883;28;20036;-71
2023/05/08 06:35:33;;;;;;;40.25;29.88;;;;;;;15.45;100.00;102010.66;5085167;28;20032;-71
2023/05/08 06:38:00;;;;;;;41.35;30.30;;;;;;;15.50;100.00;102013.56;5083024;28;20050;-77
2023/05/08 06:40:25;;;;;;;40.47;30.10;;;;;;;15.52;100.00;102015.03;5082387;28;20390;-77
2023/05/08 06:42:51;;;;;;;38.05;28.52;;;;;;;15.52;100.00;102012.34;5084296;28;20024;-76
2023/05/08 06:45:16;;;;;;;44.10;30.98;;;;;;;15.57;100.00;102015.25;5082703;28;20020;-77
2023/05/08 06:47:41;;;;;;;38.58;29.38;;;;;;;15.59;100.00;102017.75;5084867;28;20020;-77
2023/05/08 06:50:07;;;;;;;38.00;27.33;;;;;;;15.56;100.00;102019.00;5081117;28;20060;-77
2023/05/08 06:52:32;;;;;;;36.70;27.48;;;;;;;15.66;100.00;102031.22;5081923;28;20051;-78
2023/05/08 06:54:58;;;;;;;37.90;28.50;;;;;;;15.70;100.00;102030.66;5083951;28;20055;-77
2023/05/08 06:57:25;;;;;;;39.03;29.15;;;;;;;15.74;100.00;102029.19;5084852;28;20036;-77
2023/05/08 06:59:52;;;;;;;36.00;28.40;;;;;;;15.76;100.00;102032.53;5084194;28;20485;-77
2023/05/08 07:02:17;;;;;;;39.58;31.40;;;;;;;15.75;100.00;102033.56;5083981;28;20536;-81
2023/05/08 07:04:43;;;;;;;42.72;32.15;;;;;;;15.70;100.00;102030.66;5084455;28;20079;-72
2023/05/08 07:07:10;;;;;;;39.08;30.55;;;;;;;15.72;100.00;102019.72;5084458;28;20031;-71
2023/05/08 07:09:35;;;;;;;40.55;32.40;;;;;;;15.74;100.00;102031.91;5085061;28;20020;-72
2023/05/08 07:12:01;;;;;;;39.95;30.55;;;;;;;15.75;100.00;102036.25;5085392;28;20039;-72
2023/05/08 07:14:26;;;;;;;41.28;30.45;;;;;;;15.77;100.00;102030.66;5085060;28;20600;-72
2023/05/08 07:16:52;;;;;;;38.88;29.33;;;;;;;15.81;100.00;102033.78;5085619;28;20081;-72
2023/05/08 07:19:17;;;;;;;40.80;30.27;;;;;;;15.81;100.00;102037.31;5085337;28;20143;-72
2023/05/08 07:21:45;;;;;;;41.97;30.05;;;;;;;15.78;100.00;102035.03;5083628;28;20463;-72
2023/05/08 07:24:10;;;;;;;41.95;29.13;;;;;;;15.74;100.00;102037.28;5083856;28;20426;-73
2023/05/08 07:26:35;;;;;;;39.67;30.73;;;;;;;15.68;100.00;102042.63;5084936;28;20028;-72
2023/05/08 07:29:01;;;;;;;40.28;30.35;;;;;;;15.64;100.00;102047.56;5067067;28;20143;-72
2023/05/08 07:31:26;;;;;;;41.95;30.48;;;;;;;15.57;100.00;102046.72;5085126;28;20066;-72
2023/05/08 07:33:52;;;;;;;44.25;33.03;;;;;;;15.55;100.00;102049.59;5084611;28;20125;-72
2023/05/08 07:36:17;;;;;;;41.58;31.80;;;;;;;15.51;100.00;102050.19;5082674;28;20022;-73
2023/05/08 07:38:42;;;;;;;42.70;34.38;;;;;;;15.44;100.00;102052.03;5084323;28;20446;-72
2023/05/08 07:41:08;;;;;;;46.55;36.97;;;;;;;15.35;100.00;102051.34;5083651;28;20032;-71
2023/05/08 07:43:33;;;;;;;48.70;38.42;;;;;;;15.29;100.00;102039.53;5083289;28;20074;-71
2023/05/08 07:45:59;;;;;;;45.42;33.58;;;;;;;15.26;100.00;102045.31;5084709;28;20039;-72
2023/05/08 07:48:24;;;;;;;47.15;32.97;;;;;;;15.29;100.00;102049.47;5084504;28;20487;-73
2023/05/08 07:50:50;;;;;;;46.58;34.92;;;;;;;15.33;100.00;102048.03;5082986;28;20123;-71
2023/05/08 07:53:16;;;;;;;41.13;30.35;;;;;;;15.38;100.00;102044.75;5083002;28;20090;-76
2023/05/08 07:55:41;;;;;;;40.80;30.92;;;;;;;15.36;100.00;102044.13;5082536;28;20387;-74
2023/05/08 07:58:07;;;;;;;40.33;29.42;;;;;;;15.43;100.00;102044.97;5083934;28;20020;-74
2023/05/08 08:00:32;;;;;;;41.95;31.23;;;;;;;15.44;100.00;102042.09;5082715;28;20051;-77
2023/05/08 08:02:59;;;;;;;38.65;29.13;;;;;;;15.55;100.00;102043.38;5082292;28;20075;-75
2023/05/08 08:05:24;;;;;;;39.83;28.48;;;;;;;15.59;100.00;102036.59;5081125;28;20071;-80
2023/05/08 08:07:50;;;;;;;40.65;29.08;;;;;;;15.70;100.00;102036.03;5083306;28;20028;-77
2023/05/08 08:10:15;;;;;;;39.13;29.27;;;;;;;15.80;100.00;102032.13;5082180;28;20040;-77
2023/05/08 08:12:40;;;;;;;41.10;30.60;;;;;;;15.85;100.00;102035.88;5083371;28;20046;-77
2023/05/08 08:15:06;;;;;;;40.97;31.95;;;;;;;15.99;100.00;102036.75;5081425;28;20047;-78
2023/05/08 08:17:32;;;;;;;38.40;28.63;;;;;;;16.08;100.00;102035.50;5081400;28;20028;-77
2023/05/08 08:19:57;;;;;;;39.00;30.20;;;;;;;16.17;100.00;102036.97;5082128;28;20036;-74
2023/05/08 08:22:24;;;;;;;43.28;31.50;;;;;;;16.34;100.00;102047.34;5081262;28;20095;-76
2023/05/08 08:24:49;;;;;;;37.47;27.75;;;;;;;16.47;100.00;102050.06;5082013;28;20106;-74
2023/05/08 08:27:15;;;;;;;39.20;29.83;;;;;;;16.52;100.00;102044.06;5082976;28;20051;-75
2023/05/08 08:29:40;;;;;;;36.53;26.70;;;;;;;16.58;100.00;102045.91;5083161;28;20032;-78
2023/05/08 08:32:05;;;;;;;37.50;28.40;;;;;;;16.75;100.00;102044.47;5088665;28;20028;-80
2023/05/08 08:34:34;;;;;;;36.97;26.58;;;;;;;17.03;100.00;102052.34;5091031;28;20669;-81
2023/05/08 08:36:59;;;;;;;34.78;24.80;;;;;;;17.23;100.00;102037.97;5089483;28;20062;-81
2023/05/08 08:39:25;;;;;;;36.40;27.27;;;;;;;17.50;100.00;102036.88;5091085;28;20024;-81
2023/05/08 08:41:50;;;;;;;34.25;24.00;;;;;;;18.34;100.00;102034.13;5090040;28;20050;-80
2023/05/08 08:44:16;;;;;;;35.38;26.27;;;;;;;19.43;100.00;102040.78;5090647;28;20066;-81
2023/05/08 08:46:49;;;;;;;33.53;24.85;;;;;;;20.58;100.00;102037.09;5090278;28;20154;-82
2023/05/08 08:49:17;;;;;;;31.02;22.45;;;;;;;20.56;100.00;102044.63;5090288;28;20487;-81
2023/05/08 08:51:48;;;;;;;30.10;23.17;;;;;;;19.86;100.00;102030.91;5091048;28;20036;-81
2023/05/08 08:54:23;;;;;;;32.08;23.52;;;;;;;19.41;100.00;102032.06;5090681;28;20494;-80
2023/05/08 08:56:50;;;;;;;29.40;21.27;;;;;;;18.93;100.00;102037.38;5090555;28;20043;-80
2023/05/08 08:59:17;;;;;;;32.08;24.17;;;;;;;18.72;100.00;102042.13;5089401;28;20048;-80
2023/05/08 09:01:49;;;;;;;30.20;22.35;;;;;;;18.55;100.00;102036.44;5090667;28;20483;-80
2023/05/08 09:04:15;;;;;;;29.52;22.42;;;;;;;18.56;100.00;102034.56;5090155;28;20055;-80
2023/05/08 09:06:41;;;;;;;29.73;20.83;;;;;;;18.61;100.00;102038.25;5089144;28;20042;-80
2023/05/08 09:09:06;;;;;;;29.27;21.35;;;;;;;18.77;100.00;102036.91;5090683;28;20020;-80
2023/05/08 09:11:32;;;;;;;29.73;20.55;;;;;;;18.90;100.00;102030.53;5090765;28;20020;-80
2023/05/08 09:13:58;;;;;;;29.92;21.38;;;;;;;18.93;100.00;102038.19;5090778;28;20024;-81
2023/05/08 09:16:24;;;;;;;25.60;18.35;;;;;;;18.78;100.00;102035.03;5089921;28;20039;-80
2023/05/08 09:18:50;;;;;;;28.67;18.42;;;;;;;18.84;100.00;102036.84;5090766;28;20036;-81
2023/05/08 09:21:15;;;;;;;29.40;21.98;;;;;;;19.17;100.00;102044.59;5090697;28;20043;-80
2023/05/08 09:24:00;;;;;;;27.05;20.45;;;;;;;19.39;100.00;102042.28;5090728;28;20467;-80
2023/05/08 09:26:46;;;;;;;25.38;18.35;;;;;;;19.60;100.00;102051.81;5090514;28;20020;-81
2023/05/08 09:29:14;;;;;;;25.65;17.80;;;;;;;19.31;100.00;102036.34;5090434;28;20094;-80
2023/05/08 09:31:45;;;;;;;24.40;17.02;;;;;;;19.23;100.00;102032.91;5090505;28;20024;-80
2023/05/08 09:34:32;;;;;;;27.20;19.08;;;;;;;19.49;100.00;102036.31;5090663;28;20028;-81
2023/05/08 09:37:09;;;;;;;28.77;19.70;;;;;;;19.39;100.00;102041.47;5089892;28;20085;-81
2023/05/08 09:39:35;;;;;;;29.65;19.33;;;;;;;19.33;100.00;102035.06;5089717;28;20016;-73
2023/05/08 09:42:04;;;;;;;26.15;18.08;;;;;;;19.50;100.00;102040.72;5071142;28;20592;-73
2023/05/08 09:44:44;;;;;;;27.15;18.80;;;;;;;19.90;100.00;102042.91;5089227;28;20035;-73
2023/05/08 09:47:13;;;;;;;28.85;20.92;;;;;;;20.02;100.00;102051.09;5089180;28;20024;-73
2023/05/08 09:49:39;;;;;;;28.48;18.70;;;;;;;19.98;100.00;102053.41;5089352;28;20024;-72
2023/05/08 09:52:06;;;;;;;30.20;21.90;;;;;;;19.79;100.00;102046.41;5089184;28;20035;-72
2023/05/08 09:54:32;;;;;;;31.42;20.77;;;;;;;19.70;100.00;102041.31;5089221;28;20121;-72
2023/05/08 09:56:57;;;;;;;28.65;20.05;;;;;;;19.64;100.00;102050.28;5089128;28;20028;-73
2023/05/08 09:59:27;;;;;;;26.98;19.63;;;;;;;19.62;100.00;102049.72;5089578;28;20032;-72
2023/05/08 10:01:54;;;;;;;27.85;19.25;;;;;;;19.66;100.00;102052.78;5093133;28;20386;-72
2023/05/08 10:04:36;;;;;;;27.83;19.67;;;;;;;19.65;100.00;102045.72;5093058;28;20150;-72
2023/05/08 10:07:03;;;;;;;29.08;20.75;;;;;;;19.56;100.00;102049.78;5092682;28;20542;-72
2023/05/08 10:09:29;;;;;;;26.42;17.95;;;;;;;19.57;100.00;102054.13;5093080;28;20170;-72
2023/05/08 10:11:55;;;;;;;29.15;20.05;;;;;;;19.63;100.00;102053.25;5093009;28;20032;-72
2023/05/08 10:14:24;;;;;;;32.72;23.75;;;;;;;19.75;100.00;102046.03;5092806;28;20471;-72
2023/05/08 10:16:53;;;;;;;31.30;22.27;;;;;;;19.81;100.00;102047.00;5092890;28;20101;-72
2023/05/08 10:19:23;;;;;;;29.65;22.92;;;;;;;19.81;100.00;102047.84;5092570;28;20024;-72
2023/05/08 10:21:50;;;;;;;29.25;20.92;;;;;;;19.85;100.00;102051.72;5088306;28;20032;-73
2023/05/08 10:24:27;;;;;;;30.10;21.58;;;;;;;19.88;100.00;102051.25;5085521;28;20024;-73
2023/05/08 10:27:19;;;;;;;30.10;23.75;;;;;;;19.93;100.00;102059.50;5086378;28;20042;-71
2023/05/08 10:29:55;;;;;;;31.73;23.23;;;;;;;20.02;100.00;102049.22;5086664;28;20028;-71
2023/05/08 10:32:23;;;;;;;33.03;23.77;;;;;;;20.12;97.32;102054.03;5085411;28;20477;-71
2023/05/08 10:34:51;;;;;;;31.58;21.67;;;;;;;20.20;98.66;102047.47;5086963;28;20028;-71
2023/05/08 10:37:17;;;;;;;30.58;21.48;;;;;;;20.17;98.97;102040.63;5085779;28;20477;-72
2023/05/08 10:39:44;;;;;;;31.13;24.52;;;;;;;20.10;97.35;102046.16;5086466;28;20028;-71
2023/05/08 10:42:12;;;;;;;28.70;21.60;;;;;;;19.95;97.31;102042.22;5084514;28;20034;-71
2023/05/08 10:44:38;;;;;;;28.45;21.73;;;;;;;19.84;100.00;102031.13;5086930;28;20028;-71
2023/05/08 10:47:04;;;;;;;31.40;22.00;;;;;;;19.85;99.42;102035.47;5092404;28;20032;-71
2023/05/08 10:49:59;;;;;;;30.80;22.73;;;;;;;19.83;99.50;102040.31;5092237;28;20036;-71
2023/05/08 10:52:42;;;;;;;30.85;21.52;;;;;;;20.05;100.00;102031.66;5092207;28;20043;-71
2023/05/08 10:55:44;;;;;;;29.83;22.58;;;;;;;20.28;99.19;102037.16;5092067;28;20154;-71
2023/05/08 10:58:29;;;;;;;31.35;22.13;;;;;;;20.41;99.83;102035.25;5008934;28;20961;-71
2023/05/08 11:01:05;;;;;;;27.73;21.35;;;;;;;20.52;95.42;102032.59;5087445;28;20561;-78
2023/05/08 11:03:36;;;;;;;29.10;20.95;;;;;;;20.60;93.23;102034.16;5092413;28;20052;-78
2023/05/08 11:06:02;;;;;;;29.80;22.03;;;;;;;20.64;93.32;102026.38;5092349;28;20074;-71
2023/05/08 11:08:29;;;;;;;28.80;20.50;;;;;;;20.72;94.04;102020.59;5091957;28;20023;-71
2023/05/08 11:11:00;;;;;;;28.98;20.77;;;;;;;20.79;95.10;102019.41;5091668;28;20111;-71